sensor_id;sensor_type;location;lat;lon;timestamp;P1;durP1;ratioP1;P2;durP2;ratioP2
62832;SDS011;48891;49.220;6.920;2023-05-31T00:00:30;19.63;;;17.17;;
62832;SDS011;48891;49.220;6.920;2023-05-31T00:02:56;22.70;;;19.15;;
62832;SDS011;48891;49.220;6.920;2023-05-31T00:05:21;21.65;;;18.52;;
62832;SDS011;48891;49.220;6.920;2023-05-31T00:07:46;21.98;;;18.35;;
62832;SDS011;48891;49.220;6.920;2023-05-31T00:10:11;22.48;;;18.90;;
62832;SDS011;48891;49.220;6.920;2023-05-31T00:12:36;21.10;;;18.40;;
62832;SDS011;48891;49.220;6.920;2023-05-31T00:15:01;24.55;;;19.05;;
62832;SDS011;48891;49.220;6.920;2023-05-31T00:17:26;22.58;;;18.73;;
62832;SDS011;48891;49.220;6.920;2023-05-31T00:19:51;21.60;;;17.90;;
62832;SDS011;48891;49.220;6.920;2023-05-31T00:22:16;19.88;;;16.52;;
62832;SDS011;48891;49.220;6.920;2023-05-31T00:24:42;22.10;;;18.77;;
62832;SDS011;48891;49.220;6.920;2023-05-31T00:27:07;22.35;;;18.98;;
62832;SDS011;48891;49.220;6.920;2023-05-31T00:29:32;22.48;;;18.60;;
62832;SDS011;48891;49.220;6.920;2023-05-31T00:31:57;22.38;;;18.63;;
62832;SDS011;48891;49.220;6.920;2023-05-31T00:34:22;21.50;;;18.48;;
62832;SDS011;48891;49.220;6.920;2023-05-31T00:36:47;21.95;;;18.05;;
62832;SDS011;48891;49.220;6.920;2023-05-31T00:39:12;21.58;;;18.10;;
62832;SDS011;48891;49.220;6.920;2023-05-31T00:41:37;20.13;;;17.40;;
62832;SDS011;48891;49.220;6.920;2023-05-31T00:44:03;22.42;;;17.67;;
62832;SDS011;48891;49.220;6.920;2023-05-31T00:46:29;22.02;;;18.02;;
62832;SDS011;48891;49.220;6.920;2023-05-31T00:48:54;19.80;;;17.48;;
62832;SDS011;48891;49.220;6.920;2023-05-31T00:51:20;20.17;;;17.60;;
62832;SDS011;48891;49.220;6.920;2023-05-31T00:53:45;20.77;;;17.45;;
62832;SDS011;48891;49.220;6.920;2023-05-31T00:56:11;21.27;;;16.58;;
62832;SDS011;48891;49.220;6.920;2023-05-31T00:58:37;19.30;;;16.95;;
62832;SDS011;48891;49.220;6.920;2023-05-31T01:01:02;21.85;;;17.73;;
62832;SDS011;48891;49.220;6.920;2023-05-31T01:03:27;21.20;;;17.80;;
62832;SDS011;48891;49.220;6.920;2023-05-31T01:05:52;20.75;;;16.90;;
62832;SDS011;48891;49.220;6.920;2023-05-31T01:08:18;20.47;;;17.03;;
62832;SDS011;48891;49.220;6.920;2023-05-31T01:10:43;22.20;;;17.73;;
62832;SDS011;48891;49.220;6.920;2023-05-31T01:15:46;20.40;;;17.92;;
62832;SDS011;48891;49.220;6.920;2023-05-31T01:18:18;20.65;;;17.88;;
62832;SDS011;48891;49.220;6.920;2023-05-31T01:20:45;20.20;;;16.65;;
62832;SDS011;48891;49.220;6.920;2023-05-31T01:28:15;20.27;;;16.60;;
62832;SDS011;48891;49.220;6.920;2023-05-31T01:30:41;21.52;;;17.38;;
62832;SDS011;48891;49.220;6.920;2023-05-31T01:33:08;19.65;;;16.65;;
62832;SDS011;48891;49.220;6.920;2023-05-31T01:35:34;19.77;;;16.25;;
62832;SDS011;48891;49.220;6.920;2023-05-31T01:37:59;18.48;;;16.27;;
62832;SDS011;48891;49.220;6.920;2023-05-31T01:40:24;20.63;;;16.15;;
62832;SDS011;48891;49.220;6.920;2023-05-31T01:42:49;18.58;;;15.65;;
62832;SDS011;48891;49.220;6.920;2023-05-31T01:45:15;20.13;;;16.50;;
62832;SDS011;48891;49.220;6.920;2023-05-31T01:47:40;18.60;;;15.63;;
62832;SDS011;48891;49.220;6.920;2023-05-31T01:50:07;20.33;;;16.17;;
62832;SDS011;48891;49.220;6.920;2023-05-31T01:52:32;19.38;;;16.70;;
62832;SDS011;48891;49.220;6.920;2023-05-31T01:54:57;19.17;;;15.50;;
62832;SDS011;48891;49.220;6.920;2023-05-31T01:57:22;20.02;;;15.90;;
62832;SDS011;48891;49.220;6.920;2023-05-31T01:59:49;20.35;;;16.17;;
62832;SDS011;48891;49.220;6.920;2023-05-31T02:02:14;18.50;;;15.52;;
62832;SDS011;48891;49.220;6.920;2023-05-31T02:04:39;20.25;;;15.98;;
62832;SDS011;48891;49.220;6.920;2023-05-31T02:07:04;19.03;;;15.77;;
62832;SDS011;48891;49.220;6.920;2023-05-31T02:09:30;18.17;;;15.53;;
62832;SDS011;48891;49.220;6.920;2023-05-31T02:11:55;20.23;;;16.33;;
62832;SDS011;48891;49.220;6.920;2023-05-31T02:14:20;17.98;;;14.90;;
62832;SDS011;48891;49.220;6.920;2023-05-31T02:16:45;20.52;;;15.98;;
62832;SDS011;48891;49.220;6.920;2023-05-31T02:19:10;19.05;;;15.98;;
62832;SDS011;48891;49.220;6.920;2023-05-31T02:21:35;18.02;;;14.98;;
62832;SDS011;48891;49.220;6.920;2023-05-31T02:24:00;19.33;;;15.70;;
62832;SDS011;48891;49.220;6.920;2023-05-31T02:26:25;18.85;;;15.73;;
62832;SDS011;48891;49.220;6.920;2023-05-31T02:28:51;18.77;;;15.13;;
62832;SDS011;48891;49.220;6.920;2023-05-31T02:31:16;18.45;;;14.73;;
62832;SDS011;48891;49.220;6.920;2023-05-31T02:33:41;17.92;;;15.27;;
62832;SDS011;48891;49.220;6.920;2023-05-31T02:36:06;18.02;;;15.60;;
62832;SDS011;48891;49.220;6.920;2023-05-31T02:38:31;18.40;;;15.88;;
62832;SDS011;48891;49.220;6.920;2023-05-31T02:40:56;18.83;;;16.10;;
62832;SDS011;48891;49.220;6.920;2023-05-31T02:43:21;17.75;;;15.00;;
62832;SDS011;48891;49.220;6.920;2023-05-31T02:45:47;18.92;;;15.13;;
62832;SDS011;48891;49.220;6.920;2023-05-31T02:48:12;18.08;;;14.55;;
62832;SDS011;48891;49.220;6.920;2023-05-31T02:50:37;18.50;;;15.10;;
62832;SDS011;48891;49.220;6.920;2023-05-31T02:53:02;19.52;;;15.00;;
62832;SDS011;48891;49.220;6.920;2023-05-31T02:55:27;18.23;;;14.90;;
62832;SDS011;48891;49.220;6.920;2023-05-31T02:57:52;19.77;;;15.70;;
62832;SDS011;48891;49.220;6.920;2023-05-31T03:00:17;18.88;;;15.20;;
62832;SDS011;48891;49.220;6.920;2023-05-31T03:02:43;18.23;;;14.73;;
62832;SDS011;48891;49.220;6.920;2023-05-31T03:05:08;16.92;;;14.63;;
62832;SDS011;48891;49.220;6.920;2023-05-31T03:07:33;17.77;;;14.43;;
62832;SDS011;48891;49.220;6.920;2023-05-31T03:09:58;18.50;;;15.40;;
62832;SDS011;48891;49.220;6.920;2023-05-31T03:12:23;18.30;;;15.07;;
62832;SDS011;48891;49.220;6.920;2023-05-31T03:14:49;16.50;;;14.30;;
62832;SDS011;48891;49.220;6.920;2023-05-31T03:17:14;18.38;;;15.07;;
62832;SDS011;48891;49.220;6.920;2023-05-31T03:19:39;18.77;;;15.32;;
62832;SDS011;48891;49.220;6.920;2023-05-31T03:22:04;18.33;;;14.32;;
62832;SDS011;48891;49.220;6.920;2023-05-31T03:24:29;18.02;;;13.65;;
62832;SDS011;48891;49.220;6.920;2023-05-31T03:26:54;18.17;;;15.68;;
62832;SDS011;48891;49.220;6.920;2023-05-31T03:29:20;18.35;;;14.88;;
62832;SDS011;48891;49.220;6.920;2023-05-31T03:31:45;18.90;;;15.37;;
62832;SDS011;48891;49.220;6.920;2023-05-31T03:34:10;17.37;;;14.23;;
62832;SDS011;48891;49.220;6.920;2023-05-31T03:36:35;19.85;;;15.57;;
62832;SDS011;48891;49.220;6.920;2023-05-31T03:39:00;17.38;;;14.57;;
62832;SDS011;48891;49.220;6.920;2023-05-31T03:41:25;18.23;;;15.10;;
62832;SDS011;48891;49.220;6.920;2023-05-31T03:43:50;17.85;;;14.98;;
62832;SDS011;48891;49.220;6.920;2023-05-31T03:46:15;19.35;;;15.05;;
62832;SDS011;48891;49.220;6.920;2023-05-31T03:48:41;19.00;;;14.85;;
62832;SDS011;48891;49.220;6.920;2023-05-31T03:51:06;18.33;;;15.70;;
62832;SDS011;48891;49.220;6.920;2023-05-31T03:53:31;18.63;;;15.38;;
62832;SDS011;48891;49.220;6.920;2023-05-31T03:55:56;17.63;;;15.10;;
62832;SDS011;48891;49.220;6.920;2023-05-31T03:58:21;21.35;;;15.30;;
62832;SDS011;48891;49.220;6.920;2023-05-31T04:00:46;21.27;;;15.98;;
62832;SDS011;48891;49.220;6.920;2023-05-31T04:03:11;20.85;;;15.48;;
62832;SDS011;48891;49.220;6.920;2023-05-31T04:05:37;19.40;;;16.27;;
62832;SDS011;48891;49.220;6.920;2023-05-31T04:08:02;18.05;;;15.55;;
62832;SDS011;48891;49.220;6.920;2023-05-31T04:10:27;17.30;;;14.98;;
62832;SDS011;48891;49.220;6.920;2023-05-31T04:12:52;19.05;;;15.65;;
62832;SDS011;48891;49.220;6.920;2023-05-31T04:15:17;19.92;;;15.70;;
62832;SDS011;48891;49.220;6.920;2023-05-31T04:17:42;18.25;;;15.75;;
62832;SDS011;48891;49.220;6.920;2023-05-31T04:20:08;19.23;;;16.13;;
62832;SDS011;48891;49.220;6.920;2023-05-31T04:22:33;19.67;;;15.52;;
62832;SDS011;48891;49.220;6.920;2023-05-31T04:24:58;17.95;;;15.70;;
62832;SDS011;48891;49.220;6.920;2023-05-31T04:27:24;18.83;;;15.73;;
62832;SDS011;48891;49.220;6.920;2023-05-31T04:29:49;20.17;;;16.98;;
62832;SDS011;48891;49.220;6.920;2023-05-31T04:32:14;19.15;;;16.52;;
62832;SDS011;48891;49.220;6.920;2023-05-31T04:34:39;21.58;;;16.08;;
62832;SDS011;48891;49.220;6.920;2023-05-31T04:37:04;20.65;;;15.98;;
62832;SDS011;48891;49.220;6.920;2023-05-31T04:39:29;20.20;;;16.02;;
62832;SDS011;48891;49.220;6.920;2023-05-31T04:41:54;19.27;;;15.55;;
62832;SDS011;48891;49.220;6.920;2023-05-31T04:44:19;20.30;;;16.63;;
62832;SDS011;48891;49.220;6.920;2023-05-31T04:46:44;18.65;;;15.82;;
62832;SDS011;48891;49.220;6.920;2023-05-31T04:49:09;21.23;;;16.33;;
62832;SDS011;48891;49.220;6.920;2023-05-31T04:51:35;18.42;;;15.45;;
62832;SDS011;48891;49.220;6.920;2023-05-31T04:54:00;20.25;;;16.52;;
62832;SDS011;48891;49.220;6.920;2023-05-31T04:56:25;19.83;;;16.40;;
62832;SDS011;48891;49.220;6.920;2023-05-31T04:58:50;19.20;;;15.98;;
62832;SDS011;48891;49.220;6.920;2023-05-31T05:01:15;19.55;;;15.65;;
62832;SDS011;48891;49.220;6.920;2023-05-31T05:03:41;18.45;;;15.52;;
62832;SDS011;48891;49.220;6.920;2023-05-31T05:06:12;18.15;;;15.50;;
62832;SDS011;48891;49.220;6.920;2023-05-31T05:08:38;20.55;;;16.67;;
62832;SDS011;48891;49.220;6.920;2023-05-31T05:11:03;18.15;;;15.50;;
62832;SDS011;48891;49.220;6.920;2023-05-31T05:13:28;18.30;;;15.70;;
62832;SDS011;48891;49.220;6.920;2023-05-31T05:15:53;18.35;;;15.40;;
62832;SDS011;48891;49.220;6.920;2023-05-31T05:18:18;18.25;;;15.65;;
62832;SDS011;48891;49.220;6.920;2023-05-31T05:20:43;21.27;;;16.75;;
62832;SDS011;48891;49.220;6.920;2023-05-31T05:23:08;18.40;;;15.35;;
62832;SDS011;48891;49.220;6.920;2023-05-31T05:25:34;19.02;;;15.05;;
62832;SDS011;48891;49.220;6.920;2023-05-31T05:27:59;19.85;;;16.02;;
62832;SDS011;48891;49.220;6.920;2023-05-31T05:30:24;18.58;;;15.93;;
62832;SDS011;48891;49.220;6.920;2023-05-31T05:32:50;20.98;;;16.08;;
62832;SDS011;48891;49.220;6.920;2023-05-31T05:35:15;20.83;;;16.05;;
62832;SDS011;48891;49.220;6.920;2023-05-31T05:37:40;19.88;;;16.55;;
62832;SDS011;48891;49.220;6.920;2023-05-31T05:40:05;20.08;;;16.52;;
62832;SDS011;48891;49.220;6.920;2023-05-31T05:42:30;19.65;;;16.23;;
62832;SDS011;48891;49.220;6.920;2023-05-31T05:44:55;19.77;;;16.60;;
62832;SDS011;48891;49.220;6.920;2023-05-31T05:47:20;17.85;;;15.60;;
62832;SDS011;48891;49.220;6.920;2023-05-31T05:49:46;19.27;;;15.82;;
62832;SDS011;48891;49.220;6.920;2023-05-31T05:52:11;19.33;;;15.75;;
62832;SDS011;48891;49.220;6.920;2023-05-31T05:54:36;18.23;;;15.68;;
62832;SDS011;48891;49.220;6.920;2023-05-31T05:57:01;20.67;;;16.87;;
62832;SDS011;48891;49.220;6.920;2023-05-31T05:59:26;19.85;;;16.15;;
62832;SDS011;48891;49.220;6.920;2023-05-31T06:01:51;18.65;;;16.35;;
62832;SDS011;48891;49.220;6.920;2023-05-31T06:04:16;19.25;;;16.30;;
62832;SDS011;48891;49.220;6.920;2023-05-31T06:06:41;20.83;;;16.77;;
62832;SDS011;48891;49.220;6.920;2023-05-31T06:09:07;17.98;;;15.20;;
62832;SDS011;48891;49.220;6.920;2023-05-31T06:11:32;20.13;;;16.35;;
62832;SDS011;48891;49.220;6.920;2023-05-31T06:13:57;18.98;;;15.98;;
62832;SDS011;48891;49.220;6.920;2023-05-31T06:16:23;19.05;;;16.30;;
62832;SDS011;48891;49.220;6.920;2023-05-31T06:18:48;19.13;;;16.23;;
62832;SDS011;48891;49.220;6.920;2023-05-31T06:21:13;18.70;;;15.87;;
62832;SDS011;48891;49.220;6.920;2023-05-31T06:23:39;18.42;;;15.40;;
62832;SDS011;48891;49.220;6.920;2023-05-31T06:26:04;19.42;;;15.68;;
62832;SDS011;48891;49.220;6.920;2023-05-31T06:28:29;18.40;;;15.48;;
62832;SDS011;48891;49.220;6.920;2023-05-31T06:30:54;18.67;;;15.32;;
62832;SDS011;48891;49.220;6.920;2023-05-31T06:33:19;19.40;;;16.05;;
62832;SDS011;48891;49.220;6.920;2023-05-31T06:35:44;18.10;;;15.98;;
62832;SDS011;48891;49.220;6.920;2023-05-31T06:38:09;17.85;;;14.95;;
62832;SDS011;48891;49.220;6.920;2023-05-31T06:40:35;16.70;;;14.88;;
62832;SDS011;48891;49.220;6.920;2023-05-31T06:43:00;18.98;;;16.20;;
62832;SDS011;48891;49.220;6.920;2023-05-31T06:45:25;18.20;;;15.32;;
62832;SDS011;48891;49.220;6.920;2023-05-31T06:47:50;18.00;;;15.85;;
62832;SDS011;48891;49.220;6.920;2023-05-31T06:50:15;18.05;;;15.50;;
62832;SDS011;48891;49.220;6.920;2023-05-31T06:52:40;18.15;;;15.77;;
62832;SDS011;48891;49.220;6.920;2023-05-31T06:55:06;18.08;;;16.17;;
62832;SDS011;48891;49.220;6.920;2023-05-31T06:57:31;19.45;;;15.43;;
62832;SDS011;48891;49.220;6.920;2023-05-31T06:59:56;18.77;;;14.80;;
62832;SDS011;48891;49.220;6.920;2023-05-31T07:02:21;18.42;;;14.60;;
62832;SDS011;48891;49.220;6.920;2023-05-31T07:04:46;18.83;;;15.27;;
62832;SDS011;48891;49.220;6.920;2023-05-31T07:07:11;18.90;;;15.73;;
62832;SDS011;48891;49.220;6.920;2023-05-31T07:09:36;19.77;;;15.98;;
62832;SDS011;48891;49.220;6.920;2023-05-31T07:12:02;17.05;;;14.60;;
62832;SDS011;48891;49.220;6.920;2023-05-31T07:14:28;17.63;;;14.93;;
62832;SDS011;48891;49.220;6.920;2023-05-31T07:16:53;17.73;;;15.18;;
62832;SDS011;48891;49.220;6.920;2023-05-31T07:19:18;18.45;;;15.00;;
62832;SDS011;48891;49.220;6.920;2023-05-31T07:21:43;16.63;;;14.60;;
62832;SDS011;48891;49.220;6.920;2023-05-31T07:24:08;17.58;;;14.52;;
62832;SDS011;48891;49.220;6.920;2023-05-31T07:26:33;16.45;;;14.30;;
62832;SDS011;48891;49.220;6.920;2023-05-31T07:28:58;18.77;;;14.52;;
62832;SDS011;48891;49.220;6.920;2023-05-31T07:31:23;17.60;;;14.70;;
62832;SDS011;48891;49.220;6.920;2023-05-31T07:33:48;17.25;;;14.95;;
62832;SDS011;48891;49.220;6.920;2023-05-31T07:36:14;18.35;;;14.50;;
62832;SDS011;48891;49.220;6.920;2023-05-31T07:38:39;17.27;;;15.10;;
62832;SDS011;48891;49.220;6.920;2023-05-31T07:41:04;17.10;;;14.38;;
62832;SDS011;48891;49.220;6.920;2023-05-31T07:43:29;18.90;;;14.80;;
62832;SDS011;48891;49.220;6.920;2023-05-31T07:45:55;18.08;;;15.40;;
62832;SDS011;48891;49.220;6.920;2023-05-31T07:48:20;18.20;;;14.52;;
62832;SDS011;48891;49.220;6.920;2023-05-31T07:50:46;17.38;;;14.45;;
62832;SDS011;48891;49.220;6.920;2023-05-31T07:53:11;17.23;;;14.48;;
62832;SDS011;48891;49.220;6.920;2023-05-31T07:55:37;18.02;;;14.10;;
62832;SDS011;48891;49.220;6.920;2023-05-31T07:58:02;16.73;;;14.67;;
62832;SDS011;48891;49.220;6.920;2023-05-31T08:00:27;15.48;;;13.20;;
62832;SDS011;48891;49.220;6.920;2023-05-31T08:02:52;16.05;;;13.88;;
62832;SDS011;48891;49.220;6.920;2023-05-31T08:05:17;15.60;;;13.40;;
62832;SDS011;48891;49.220;6.920;2023-05-31T08:07:42;17.17;;;14.53;;
62832;SDS011;48891;49.220;6.920;2023-05-31T08:10:07;17.15;;;14.10;;
62832;SDS011;48891;49.220;6.920;2023-05-31T08:12:33;15.73;;;13.20;;
62832;SDS011;48891;49.220;6.920;2023-05-31T08:14:58;16.30;;;13.68;;
62832;SDS011;48891;49.220;6.920;2023-05-31T08:17:23;16.83;;;13.93;;
62832;SDS011;48891;49.220;6.920;2023-05-31T08:19:48;17.48;;;14.32;;
62832;SDS011;48891;49.220;6.920;2023-05-31T08:22:14;16.83;;;14.07;;
62832;SDS011;48891;49.220;6.920;2023-05-31T08:24:39;15.23;;;12.77;;
62832;SDS011;48891;49.220;6.920;2023-05-31T08:27:04;16.85;;;13.50;;
62832;SDS011;48891;49.220;6.920;2023-05-31T08:29:30;14.98;;;13.00;;
62832;SDS011;48891;49.220;6.920;2023-05-31T08:31:55;16.25;;;13.38;;
62832;SDS011;48891;49.220;6.920;2023-05-31T08:34:20;16.10;;;13.90;;
62832;SDS011;48891;49.220;6.920;2023-05-31T08:36:45;15.40;;;13.02;;
62832;SDS011;48891;49.220;6.920;2023-05-31T08:39:10;16.27;;;12.85;;
62832;SDS011;48891;49.220;6.920;2023-05-31T08:41:38;16.40;;;13.38;;
62832;SDS011;48891;49.220;6.920;2023-05-31T08:44:08;15.13;;;13.23;;
62832;SDS011;48891;49.220;6.920;2023-05-31T08:46:34;14.73;;;12.30;;
62832;SDS011;48891;49.220;6.920;2023-05-31T08:49:00;15.48;;;13.35;;
62832;SDS011;48891;49.220;6.920;2023-05-31T08:51:27;15.32;;;12.40;;
62832;SDS011;48891;49.220;6.920;2023-05-31T08:53:52;18.30;;;13.00;;
62832;SDS011;48891;49.220;6.920;2023-05-31T08:56:18;14.00;;;12.43;;
62832;SDS011;48891;49.220;6.920;2023-05-31T08:58:43;14.38;;;12.52;;
62832;SDS011;48891;49.220;6.920;2023-05-31T09:01:08;13.77;;;12.38;;
62832;SDS011;48891;49.220;6.920;2023-05-31T09:03:33;15.30;;;12.27;;
62832;SDS011;48891;49.220;6.920;2023-05-31T09:05:59;13.82;;;12.32;;
62832;SDS011;48891;49.220;6.920;2023-05-31T09:08:24;14.80;;;12.57;;
62832;SDS011;48891;49.220;6.920;2023-05-31T09:10:49;15.53;;;12.33;;
62832;SDS011;48891;49.220;6.920;2023-05-31T09:13:14;16.65;;;12.93;;
62832;SDS011;48891;49.220;6.920;2023-05-31T09:15:39;14.88;;;12.30;;
62832;SDS011;48891;49.220;6.920;2023-05-31T09:18:15;14.68;;;11.88;;
62832;SDS011;48891;49.220;6.920;2023-05-31T09:20:41;14.50;;;12.27;;
62832;SDS011;48891;49.220;6.920;2023-05-31T09:23:07;14.45;;;12.02;;
62832;SDS011;48891;49.220;6.920;2023-05-31T09:25:42;14.57;;;11.63;;
62832;SDS011;48891;49.220;6.920;2023-05-31T09:28:07;15.32;;;11.85;;
62832;SDS011;48891;49.220;6.920;2023-05-31T09:30:32;13.32;;;11.52;;
62832;SDS011;48891;49.220;6.920;2023-05-31T09:32:57;16.02;;;12.25;;
62832;SDS011;48891;49.220;6.920;2023-05-31T09:35:23;14.38;;;11.70;;
62832;SDS011;48891;49.220;6.920;2023-05-31T09:37:49;14.30;;;11.95;;
62832;SDS011;48891;49.220;6.920;2023-05-31T09:40:14;14.23;;;11.57;;
62832;SDS011;48891;49.220;6.920;2023-05-31T09:42:46;13.63;;;11.48;;
62832;SDS011;48891;49.220;6.920;2023-05-31T09:45:11;14.25;;;11.88;;
62832;SDS011;48891;49.220;6.920;2023-05-31T09:47:36;13.32;;;11.40;;
62832;SDS011;48891;49.220;6.920;2023-05-31T09:50:01;13.23;;;11.18;;
62832;SDS011;48891;49.220;6.920;2023-05-31T09:52:27;14.00;;;10.88;;
62832;SDS011;48891;49.220;6.920;2023-05-31T09:54:54;13.23;;;11.48;;
62832;SDS011;48891;49.220;6.920;2023-05-31T09:57:33;14.43;;;11.40;;
62832;SDS011;48891;49.220;6.920;2023-05-31T09:59:59;12.60;;;10.48;;
62832;SDS011;48891;49.220;6.920;2023-05-31T10:02:24;14.00;;;11.30;;
62832;SDS011;48891;49.220;6.920;2023-05-31T10:04:50;13.10;;;11.32;;
62832;SDS011;48891;49.220;6.920;2023-05-31T10:07:15;12.50;;;10.73;;
62832;SDS011;48891;49.220;6.920;2023-05-31T10:09:41;12.32;;;10.70;;
62832;SDS011;48891;49.220;6.920;2023-05-31T10:12:06;12.88;;;11.15;;
62832;SDS011;48891;49.220;6.920;2023-05-31T10:14:32;13.27;;;11.02;;
62832;SDS011;48891;49.220;6.920;2023-05-31T10:16:59;11.95;;;9.95;;
62832;SDS011;48891;49.220;6.920;2023-05-31T10:19:31;11.48;;;10.15;;
62832;SDS011;48891;49.220;6.920;2023-05-31T10:21:58;11.98;;;10.18;;
62832;SDS011;48891;49.220;6.920;2023-05-31T10:24:25;12.63;;;10.60;;
62832;SDS011;48891;49.220;6.920;2023-05-31T10:27:02;13.13;;;10.70;;
62832;SDS011;48891;49.220;6.920;2023-05-31T10:29:33;12.65;;;10.35;;
62832;SDS011;48891;49.220;6.920;2023-05-31T10:32:01;12.00;;;10.20;;
62832;SDS011;48891;49.220;6.920;2023-05-31T10:34:30;13.73;;;10.95;;
62832;SDS011;48891;49.220;6.920;2023-05-31T10:36:56;12.05;;;9.93;;
62832;SDS011;48891;49.220;6.920;2023-05-31T10:39:24;13.27;;;10.43;;
62832;SDS011;48891;49.220;6.920;2023-05-31T10:44:18;12.95;;;10.00;;
62832;SDS011;48891;49.220;6.920;2023-05-31T10:46:44;12.73;;;10.63;;
62832;SDS011;48891;49.220;6.920;2023-05-31T10:49:11;11.27;;;10.07;;
62832;SDS011;48891;49.220;6.920;2023-05-31T10:51:41;11.60;;;9.48;;
62832;SDS011;48891;49.220;6.920;2023-05-31T10:54:07;12.13;;;10.40;;
62832;SDS011;48891;49.220;6.920;2023-05-31T10:56:33;11.73;;;9.93;;
62832;SDS011;48891;49.220;6.920;2023-05-31T10:59:00;11.55;;;9.30;;
62832;SDS011;48891;49.220;6.920;2023-05-31T11:01:28;12.30;;;9.32;;
62832;SDS011;48891;49.220;6.920;2023-05-31T11:03:53;11.33;;;9.87;;
62832;SDS011;48891;49.220;6.920;2023-05-31T11:06:22;12.70;;;10.05;;
62832;SDS011;48891;49.220;6.920;2023-05-31T11:09:00;11.43;;;9.90;;
62832;SDS011;48891;49.220;6.920;2023-05-31T11:11:26;11.75;;;9.50;;
62832;SDS011;48891;49.220;6.920;2023-05-31T11:14:25;11.02;;;9.65;;
62832;SDS011;48891;49.220;6.920;2023-05-31T11:19:12;11.00;;;9.35;;
62832;SDS011;48891;49.220;6.920;2023-05-31T11:21:44;10.45;;;9.32;;
62832;SDS011;48891;49.220;6.920;2023-05-31T11:24:10;11.55;;;9.85;;
62832;SDS011;48891;49.220;6.920;2023-05-31T11:26:45;10.83;;;9.13;;
62832;SDS011;48891;49.220;6.920;2023-05-31T11:29:15;11.52;;;9.18;;
62832;SDS011;48891;49.220;6.920;2023-05-31T11:34:17;11.05;;;8.90;;
62832;SDS011;48891;49.220;6.920;2023-05-31T11:36:43;10.18;;;8.90;;
62832;SDS011;48891;49.220;6.920;2023-05-31T11:39:08;10.82;;;9.00;;
62832;SDS011;48891;49.220;6.920;2023-05-31T11:41:33;10.82;;;8.98;;
62832;SDS011;48891;49.220;6.920;2023-05-31T11:43:59;12.55;;;9.50;;
62832;SDS011;48891;49.220;6.920;2023-05-31T11:46:24;10.23;;;8.93;;
62832;SDS011;48891;49.220;6.920;2023-05-31T11:48:49;10.73;;;9.13;;
62832;SDS011;48891;49.220;6.920;2023-05-31T11:51:14;11.60;;;9.32;;
62832;SDS011;48891;49.220;6.920;2023-05-31T11:53:40;11.40;;;8.95;;
62832;SDS011;48891;49.220;6.920;2023-05-31T11:56:05;9.67;;;8.40;;
62832;SDS011;48891;49.220;6.920;2023-05-31T11:58:30;10.60;;;8.55;;
62832;SDS011;48891;49.220;6.920;2023-05-31T12:00:58;10.32;;;8.80;;
62832;SDS011;48891;49.220;6.920;2023-05-31T12:03:24;10.85;;;9.45;;
62832;SDS011;48891;49.220;6.920;2023-05-31T12:05:49;10.00;;;8.48;;
62832;SDS011;48891;49.220;6.920;2023-05-31T12:08:14;10.95;;;8.50;;
62832;SDS011;48891;49.220;6.920;2023-05-31T12:10:41;10.48;;;8.13;;
62832;SDS011;48891;49.220;6.920;2023-05-31T12:13:06;10.20;;;8.63;;
62832;SDS011;48891;49.220;6.920;2023-05-31T12:15:31;11.00;;;9.25;;
62832;SDS011;48891;49.220;6.920;2023-05-31T12:17:57;9.55;;;8.10;;
62832;SDS011;48891;49.220;6.920;2023-05-31T12:20:26;9.02;;;8.13;;
62832;SDS011;48891;49.220;6.920;2023-05-31T12:22:51;9.57;;;8.55;;
62832;SDS011;48891;49.220;6.920;2023-05-31T12:25:16;8.93;;;7.97;;
62832;SDS011;48891;49.220;6.920;2023-05-31T12:27:41;8.65;;;7.75;;
62832;SDS011;48891;49.220;6.920;2023-05-31T12:30:07;10.23;;;8.40;;
62832;SDS011;48891;49.220;6.920;2023-05-31T12:32:32;10.70;;;8.90;;
62832;SDS011;48891;49.220;6.920;2023-05-31T12:35:09;10.63;;;8.55;;
62832;SDS011;48891;49.220;6.920;2023-05-31T12:37:37;9.67;;;7.70;;
62832;SDS011;48891;49.220;6.920;2023-05-31T12:40:09;10.23;;;8.00;;
62832;SDS011;48891;49.220;6.920;2023-05-31T12:42:35;8.77;;;7.47;;
62832;SDS011;48891;49.220;6.920;2023-05-31T12:45:02;9.27;;;7.70;;
62832;SDS011;48891;49.220;6.920;2023-05-31T12:47:27;9.00;;;7.72;;
62832;SDS011;48891;49.220;6.920;2023-05-31T12:49:52;9.52;;;7.82;;
62832;SDS011;48891;49.220;6.920;2023-05-31T12:52:17;9.25;;;8.00;;
62832;SDS011;48891;49.220;6.920;2023-05-31T12:54:42;9.98;;;7.80;;
62832;SDS011;48891;49.220;6.920;2023-05-31T12:57:08;10.32;;;8.13;;
62832;SDS011;48891;49.220;6.920;2023-05-31T12:59:34;8.93;;;7.93;;
62832;SDS011;48891;49.220;6.920;2023-05-31T13:02:00;8.23;;;7.15;;
62832;SDS011;48891;49.220;6.920;2023-05-31T13:04:25;8.50;;;7.35;;
62832;SDS011;48891;49.220;6.920;2023-05-31T13:06:50;10.13;;;8.00;;
62832;SDS011;48891;49.220;6.920;2023-05-31T13:09:15;8.50;;;7.57;;
62832;SDS011;48891;49.220;6.920;2023-05-31T13:11:41;9.32;;;7.93;;
62832;SDS011;48891;49.220;6.920;2023-05-31T13:14:07;10.05;;;7.88;;
62832;SDS011;48891;49.220;6.920;2023-05-31T13:16:32;9.38;;;7.45;;
62832;SDS011;48891;49.220;6.920;2023-05-31T13:18:58;10.45;;;7.60;;
62832;SDS011;48891;49.220;6.920;2023-05-31T13:21:23;9.00;;;7.13;;
62832;SDS011;48891;49.220;6.920;2023-05-31T13:23:49;8.73;;;7.35;;
62832;SDS011;48891;49.220;6.920;2023-05-31T13:26:14;9.65;;;7.47;;
62832;SDS011;48891;49.220;6.920;2023-05-31T13:28:39;8.50;;;6.90;;
62832;SDS011;48891;49.220;6.920;2023-05-31T13:31:04;8.80;;;7.35;;
62832;SDS011;48891;49.220;6.920;2023-05-31T13:33:29;8.67;;;7.27;;
62832;SDS011;48891;49.220;6.920;2023-05-31T13:35:54;8.32;;;6.65;;
62832;SDS011;48891;49.220;6.920;2023-05-31T13:38:19;10.45;;;7.60;;
62832;SDS011;48891;49.220;6.920;2023-05-31T13:40:44;8.18;;;6.90;;
62832;SDS011;48891;49.220;6.920;2023-05-31T13:43:10;8.30;;;7.15;;
62832;SDS011;48891;49.220;6.920;2023-05-31T13:45:35;8.77;;;6.50;;
62832;SDS011;48891;49.220;6.920;2023-05-31T13:48:00;7.43;;;6.30;;
62832;SDS011;48891;49.220;6.920;2023-05-31T13:50:25;8.48;;;6.85;;
62832;SDS011;48891;49.220;6.920;2023-05-31T13:52:50;8.23;;;6.63;;
62832;SDS011;48891;49.220;6.920;2023-05-31T13:55:15;8.35;;;6.85;;
62832;SDS011;48891;49.220;6.920;2023-05-31T13:57:40;8.38;;;7.30;;
62832;SDS011;48891;49.220;6.920;2023-05-31T14:00:05;7.88;;;6.53;;
62832;SDS011;48891;49.220;6.920;2023-05-31T14:02:31;8.23;;;6.95;;
62832;SDS011;48891;49.220;6.920;2023-05-31T14:04:56;9.10;;;7.30;;
62832;SDS011;48891;49.220;6.920;2023-05-31T14:07:21;8.35;;;7.00;;
62832;SDS011;48891;49.220;6.920;2023-05-31T14:09:46;7.70;;;6.40;;
62832;SDS011;48891;49.220;6.920;2023-05-31T14:12:11;8.20;;;6.80;;
62832;SDS011;48891;49.220;6.920;2023-05-31T14:14:36;7.80;;;6.70;;
62832;SDS011;48891;49.220;6.920;2023-05-31T14:17:01;9.57;;;6.80;;
62832;SDS011;48891;49.220;6.920;2023-05-31T14:19:27;8.57;;;6.82;;
62832;SDS011;48891;49.220;6.920;2023-05-31T14:21:52;8.05;;;6.55;;
62832;SDS011;48891;49.220;6.920;2023-05-31T14:24:17;7.57;;;6.50;;
62832;SDS011;48891;49.220;6.920;2023-05-31T14:26:42;8.98;;;7.18;;
62832;SDS011;48891;49.220;6.920;2023-05-31T14:29:07;8.63;;;6.65;;
62832;SDS011;48891;49.220;6.920;2023-05-31T14:31:32;8.02;;;6.32;;